Time;durP1;ratioP1;P1;durP2;ratioP2;P2;SDS_P1;SDS_P2;PMS_P1;PMS_P2;Temp;Humidity;BMP_temperature;BMP_pressure;BME280_temperature;BME280_humidity;BME280_pressure;Samples;Min_cycle;Max_cycle;Signal;HPM_P1;HPM_P2
2023/05/08 00:01:14;;;;;;;;;;;11.10;99.90;;;;;;5114667;28;19923;-92
2023/05/08 00:03:40;;;;;;;;;;;11.60;99.90;;;;;;5080107;28;20018;-92
2023/05/08 00:06:08;;;;;;;;;;;13.80;99.90;;;;;;5080904;28;20378;-90
2023/05/08 00:12:27;;;;;;;;;;;11.30;99.90;;;;;;5095518;28;20010;-91
2023/05/08 00:15:12;;;;;;;;;;;;;;;;;;;;;
2023/05/08 00:17:41;;;;;;;;;;;11.60;99.90;;;;;;5114243;28;19924;-90
2023/05/08 00:20:32;;;;;;;;;;;11.20;99.90;;;;;;5080272;28;19979;-91
2023/05/08 00:23:07;;;;;;;;;;;9.60;99.90;;;;;;5115322;28;20015;-91
2023/05/08 00:25:39;;;;;;;;;;;11.60;99.90;;;;;;5080192;28;20374;-91
2023/05/08 00:31:23;;;;;;;;;;;;;;;;;;;;;
2023/05/08 00:34:02;;;;;;;;;;;13.20;99.90;;;;;;5114100;28;19924;-91
2023/05/08 00:36:45;;;;;;;;;;;11.20;99.90;;;;;;5066029;28;20015;-91
2023/05/08 00:39:16;;;;;;;;;;;10.20;99.90;;;;;;5080861;28;19946;-91
2023/05/08 00:41:49;;;;;;;;;;;11.20;99.90;;;;;;5079768;28;20010;-92
2023/05/08 00:44:40;;;;;;;;;;;9.30;99.90;;;;;;5079706;28;19957;-93
2023/05/08 00:47:47;;;;;;;;;;;11.20;99.90;;;;;;5080499;28;19989;-91
2023/05/08 00:50:26;;;;;;;;;;;11.30;99.90;;;;;;5096352;28;19934;-91
2023/05/08 00:55:47;;;;;;;;;;;11.00;99.90;;;;;;5099320;28;20010;-91
2023/05/08 00:58:18;;;;;;;;;;;11.40;99.90;;;;;;5109705;28;19963;-91
2023/05/08 01:01:13;;;;;;;;;;;11.60;99.90;;;;;;5118115;28;19924;-89
2023/05/08 01:03:51;;;;;;;;;;;;;;;;;;;;;
2023/05/08 01:06:27;;;;;;;;;;;;;;;;;;;;;
2023/05/08 01:09:17;;;;;;;;;;;13.40;99.90;;;;;;5103737;28;20011;-92
2023/05/08 01:12:15;;;;;;;;;;;12.80;99.90;;;;;;5086014;28;19924;-91
2023/05/08 01:15:11;;;;;;;;;;;9.40;99.90;;;;;;5116005;28;19924;-91
2023/05/08 01:17:59;;;;;;;;;;;11.40;99.90;;;;;;5095956;28;19970;-92
2023/05/08 01:20:34;;;;;;;;;;;10.90;99.90;;;;;;5079842;28;19923;-90
2023/05/08 01:23:17;;;;;;;;;;;11.20;99.90;;;;;;5080199;28;20267;-91
2023/05/08 01:26:25;;;;;;;;;;;10.20;99.90;;;;;;5079155;28;19973;-90
2023/05/08 01:29:04;;;;;;;;;;;;;;;;;;;;;
2023/05/08 01:32:02;;;;;;;;;;;8.60;99.90;;;;;;5113018;28;19946;-90
2023/05/08 01:37:26;;;;;;;;;;;10.60;99.90;;;;;;5088471;28;20332;-91
2023/05/08 01:40:17;;;;;;;;;;;;;;;;;;;;;
2023/05/08 01:43:14;;;;;;;;;;;11.00;99.90;;;;;;5112955;28;19946;-92
2023/05/08 01:45:51;;;;;;;;;;;10.20;99.90;;;;;;5078997;28;19924;-90
2023/05/08 01:48:34;;;;;;;;;;;10.60;99.90;;;;;;5095893;28;19923;-92
2023/05/08 01:51:18;;;;;;;;;;;10.80;99.90;;;;;;5063864;28;19959;-91
2023/05/08 01:53:59;;;;;;;;;;;10.50;99.90;;;;;;5079163;28;19923;-91
2023/05/08 01:59:56;;;;;;;;;;;11.10;99.90;;;;;;5100362;28;19924;-90
2023/05/08 02:02:42;;;;;;;;;;;10.50;99.90;;;;;;5082715;28;20345;-91
2023/05/08 02:05:31;;;;;;;;;;;10.70;99.90;;;;;;5082607;28;20010;-90
2023/05/08 02:08:10;;;;;;;;;;;;;;;;;;;;;
2023/05/08 02:10:53;;;;;;;;;;;11.00;99.90;;;;;;5084747;28;19923;-93
2023/05/08 02:13:49;;;;;;;;;;;;;;;;;;;;;
2023/05/08 02:16:24;;;;;;;;;;;10.70;99.90;;;;;;5088925;28;19924;-92
2023/05/08 02:22:07;;;;;;;;;;;10.70;99.90;;;;;;5084981;28;19924;-91
2023/05/08 02:24:47;;;;;;;;;;;10.40;99.90;;;;;;5066358;28;19973;-91
2023/05/08 02:27:46;;;;;;;;;;;;;;;;;;;;;
2023/05/08 02:30:28;;;;;;;;;;;;;;;;;;;;;
2023/05/08 02:39:26;;;;;;;;;;;10.30;99.90;;;;;;5088710;28;19923;-91
2023/05/08 02:42:22;;;;;;;;;;;10.60;99.90;;;;;;5098646;28;19924;-91
2023/05/08 02:45:11;;;;;;;;;;;8.80;99.90;;;;;;5099491;28;19973;-91
2023/05/08 02:47:52;;;;;;;;;;;;;;;;;;;;;
2023/05/08 02:50:37;;;;;;;;;;;10.20;99.90;;;;;;5115412;28;19931;-91
2023/05/08 02:53:23;;;;;;;;;;;10.40;99.90;;;;;;5084094;28;20293;-91
2023/05/08 02:56:01;;;;;;;;;;;;;;;;;;;;;
2023/05/08 02:58:55;;;;;;;;;;;10.10;99.90;;;;;;5115995;28;19980;-92
2023/05/08 03:01:29;;;;;;;;;;;9.90;99.90;;;;;;5066860;28;20037;-91
2023/05/08 03:04:02;;;;;;;;;;;10.40;99.90;;;;;;5081145;28;19924;-91
2023/05/08 03:06:43;;;;;;;;;;;10.50;99.90;;;;;;5081829;28;20027;-90
2023/05/08 03:09:19;;;;;;;;;;;10.80;99.90;;;;;;5082047;28;19928;-91
2023/05/08 03:11:58;;;;;;;;;;;9.80;99.90;;;;;;5081323;28;19924;-90
2023/05/08 03:14:34;;;;;;;;;;;9.20;99.90;;;;;;5082432;28;19972;-91
2023/05/08 03:17:14;;;;;;;;;;;9.70;99.90;;;;;;5082355;28;19932;-91
2023/05/08 03:23:02;;;;;;;;;;;9.90;99.90;;;;;;5090903;28;20371;-90
2023/05/08 03:25:29;;;;;;;;;;;10.10;99.90;;;;;;5081369;28;20358;-91
2023/05/08 03:28:07;;;;;;;;;;;10.10;99.90;;;;;;5082140;28;19923;-90
2023/05/08 03:31:15;;;;;;;;;;;9.70;99.90;;;;;;5082720;28;20298;-91
2023/05/08 03:36:27;;;;;;;;;;;10.90;99.90;;;;;;5090240;28;20375;-91
2023/05/08 03:39:20;;;;;;;;;;;;;;;;;;;;;
2023/05/08 03:41:56;;;;;;;;;;;8.30;99.90;;;;;;5115066;28;20015;-90
2023/05/08 03:44:42;;;;;;;;;;;9.60;99.90;;;;;;5082796;28;19942;-91
2023/05/08 03:47:31;;;;;;;;;;;7.80;99.90;;;;;;5079183;28;19924;-93
2023/05/08 03:50:27;;;;;;;;;;;;;;;;;;;;;
2023/05/08 03:53:19;;;;;;;;;;;9.90;99.90;;;;;;5098764;28;19927;-91
2023/05/08 03:58:33;;;;;;;;;;;9.50;99.90;;;;;;5802272;22;20266;-86
2023/05/08 04:00:59;;;;;;;;;;;7.60;99.90;;;;;;5028540;28;19932;-88
2023/05/08 04:04:00;;;;;;;;;;;11.40;99.90;;;;;;5015282;28;20280;-91
2023/05/08 04:06:57;;;;;;;;;;;11.10;99.90;;;;;;5000106;28;19933;-92
2023/05/08 04:09:29;;;;;;;;;;;10.50;99.90;;;;;;4986143;28;19968;-92
2023/05/08 04:12:15;;;;;;;;;;;9.60;99.90;;;;;;5001161;28;19925;-90
2023/05/08 04:14:55;;;;;;;;;;;9.40;99.90;;;;;;4998342;28;19925;-91
2023/05/08 04:20:39;;;;;;;;;;;9.50;99.90;;;;;;4994873;28;19926;-91
2023/05/08 04:23:11;;;;;;;;;;;9.60;99.90;;;;;;4984160;28;20396;-92
2023/05/08 04:25:56;;;;;;;;;;;;;;;;;;;;;
2023/05/08 04:28:22;;;;;;;;;;;9.70;99.90;;;;;;5017167;28;20372;-91
2023/05/08 04:31:17;;;;;;;;;;;;;;;;;;;;;
2023/05/08 04:33:59;;;;;;;;;;;;;;;;;;;;;
2023/05/08 04:36:30;;;;;;;;;;;9.60;99.90;;;;;;5017916;28;19972;-92
2023/05/08 04:39:06;;;;;;;;;;;10.00;99.90;;;;;;5000599;28;19931;-92
2023/05/08 04:41:34;;;;;;;;;;;9.60;99.90;;;;;;4985362;28;19979;-91
2023/05/08 04:44:50;;;;;;;;;;;8.10;99.90;;;;;;5016052;28;20447;-91
2023/05/08 04:47:03;;;;;;;;;;;9.70;99.90;;;;;;5008944;28;19932;-92
2023/05/08 04:49:52;;;;;;;;;;;9.90;99.90;;;;;;5018391;28;20265;-92
2023/05/08 04:52:25;;;;;;;;;;;11.40;99.90;;;;;;4985989;28;19925;-91
2023/05/08 04:55:01;;;;;;;;;;;10.10;99.90;;;;;;4983821;28;20311;-91
2023/05/08 04:57:29;;;;;;;;;;;10.00;99.90;;;;;;4984898;28;19998;-91
2023/05/08 05:00:08;;;;;;;;;;;;;;;;;;;;;
2023/05/08 05:02:34;;;;;;;;;;;10.10;99.90;;;;;;5018077;28;19925;-91
2023/05/08 05:05:02;;;;;;;;;;;10.30;99.90;;;;;;4984492;28;20257;-92
2023/05/08 05:07:30;;;;;;;;;;;10.00;99.90;;;;;;4988581;28;20008;-91
2023/05/08 05:10:06;;;;;;;;;;;10.20;99.90;;;;;;5004707;28;20451;-91
2023/05/08 05:12:44;;;;;;;;;;;10.30;99.90;;;;;;4987534;28;19987;-92
2023/05/08 05:18:04;;;;;;;;;;;10.90;99.90;;;;;;5018580;28;19925;-90
2023/05/08 05:20:35;;;;;;;;;;;11.20;99.90;;;;;;5001273;28;19929;-91
2023/05/08 05:23:12;;;;;;;;;;;11.40;99.90;;;;;;4985234;28;19983;-90
2023/05/08 05:25:49;;;;;;;;;;;11.30;99.90;;;;;;5003666;28;19929;-92
2023/05/08 05:28:15;;;;;;;;;;;12.10;99.90;;;;;;5000934;28;20435;-90
2023/05/08 05:30:55;;;;;;;;;;;11.60;99.90;;;;;;5000463;28;19968;-91
2023/05/08 05:33:23;;;;;;;;;;;10.90;99.90;;;;;;5000869;28;19936;-91
2023/05/08 05:36:01;;;;;;;;;;;10.80;99.90;;;;;;5000522;28;19925;-89
2023/05/08 05:38:29;;;;;;;;;;;11.00;99.90;;;;;;5001646;28;19925;-89
2023/05/08 05:41:15;;;;;;;;;;;9.50;99.90;;;;;;4985363;28;19979;-93
2023/05/08 05:43:55;;;;;;;;;;;11.10;99.90;;;;;;5001756;28;19979;-90
2023/05/08 05:46:26;;;;;;;;;;;10.90;99.90;;;;;;5017949;28;19932;-90
2023/05/08 05:49:03;;;;;;;;;;;10.70;99.90;;;;;;5018653;28;20283;-93
2023/05/08 05:51:33;;;;;;;;;;;11.20;99.90;;;;;;5003851;28;19937;-89
2023/05/08 05:54:01;;;;;;;;;;;10.90;99.90;;;;;;5033605;28;19925;-92
2023/05/08 05:56:29;;;;;;;;;;;11.10;99.90;;;;;;5006675;28;19953;-93
2023/05/08 06:06:29;;;;;;;;;;;;;;;;;;;;;
2023/05/08 06:22:59;;;;;;;;;;;11.70;99.90;;;;;;5099585;28;19985;-92
2023/05/08 06:25:26;;;;;;;;;;;12.60;99.90;;;;;;5066306;28;19924;-92
2023/05/08 06:27:52;;;;;;;;;;;12.20;99.90;;;;;;5082447;28;19920;-92
2023/05/08 06:30:18;;;;;;;;;;;12.20;99.90;;;;;;5065349;28;20013;-93
2023/05/08 06:32:43;;;;;;;;;;;12.30;99.90;;;;;;5079701;28;19932;-93
2023/05/08 06:35:10;;;;;;;;;;;12.40;99.90;;;;;;5066813;28;19924;-92
2023/05/08 06:37:36;;;;;;;;;;;12.40;99.90;;;;;;5074332;28;20244;-94
2023/05/08 06:40:02;;;;;;;;;;;12.50;99.90;;;;;;5083413;28;19924;-93
2023/05/08 06:42:28;;;;;;;;;;;12.50;99.90;;;;;;5082356;28;19928;-91
2023/05/08 06:44:55;;;;;;;;;;;12.70;99.90;;;;;;5082671;28;19934;-91
2023/05/08 06:47:20;;;;;;;;;;;12.80;99.90;;;;;;5065792;28;19931;-92
2023/05/08 06:49:46;;;;;;;;;;;13.00;99.90;;;;;;5090656;28;19979;-93
2023/05/08 06:52:12;;;;;;;;;;;13.20;99.90;;;;;;5066773;28;19925;-92
2023/05/08 06:54:37;;;;;;;;;;;13.30;99.90;;;;;;5097838;28;19928;-92
2023/05/08 06:57:03;;;;;;;;;;;13.50;99.90;;;;;;5082884;28;19931;-92
2023/05/08 06:59:28;;;;;;;;;;;13.60;99.90;;;;;;5056785;28;19983;-92
2023/05/08 07:01:54;;;;;;;;;;;13.60;99.90;;;;;;5091354;28;19924;-93
2023/05/08 07:04:20;;;;;;;;;;;13.60;99.90;;;;;;5081740;28;19924;-92
2023/05/08 07:06:46;;;;;;;;;;;13.60;99.90;;;;;;5096767;28;19930;-92
2023/05/08 07:09:11;;;;;;;;;;;13.30;99.90;;;;;;5074883;28;19959;-91
2023/05/08 07:11:37;;;;;;;;;;;13.20;99.90;;;;;;5093750;28;19921;-92
2023/05/08 07:14:03;;;;;;;;;;;13.20;99.90;;;;;;5078863;28;19920;-92
2023/05/08 07:16:28;;;;;;;;;;;13.20;99.90;;;;;;5065853;28;20305;-92
2023/05/08 07:18:54;;;;;;;;;;;13.20;99.90;;;;;;5095523;28;20023;-92
2023/05/08 07:21:20;;;;;;;;;;;13.20;99.90;;;;;;5065268;28;20027;-92
2023/05/08 07:23:46;;;;;;;;;;;13.20;99.90;;;;;;5081786;28;19931;-92
2023/05/08 07:26:12;;;;;;;;;;;13.20;99.90;;;;;;5065389;28;19951;-92
2023/05/08 07:28:38;;;;;;;;;;;13.20;99.90;;;;;;5080715;28;19940;-92
2023/05/08 07:31:05;;;;;;;;;;;13.20;99.90;;;;;;5060106;28;20002;-92
2023/05/08 07:33:32;;;;;;;;;;;13.20;99.90;;;;;;5055620;28;19924;-91
2023/05/08 07:35:58;;;;;;;;;;;13.30;99.90;;;;;;5055649;28;20000;-91
2023/05/08 07:38:24;;;;;;;;;;;13.30;99.90;;;;;;5059673;28;19925;-91
2023/05/08 07:40:52;;;;;;;;;;;13.30;99.90;;;;;;5050752;28;19978;-93
2023/05/08 07:43:17;;;;;;;;;;;13.40;99.90;;;;;;5065879;28;19933;-91
2023/05/08 07:45:43;;;;;;;;;;;13.40;99.90;;;;;;5066590;28;19938;-92
2023/05/08 07:48:08;;;;;;;;;;;13.50;99.90;;;;;;5052229;28;19928;-92
2023/05/08 07:50:35;;;;;;;;;;;13.40;99.90;;;;;;5048768;28;20503;-92
2023/05/08 07:53:00;;;;;;;;;;;13.30;99.90;;;;;;5051296;28;19979;-92
2023/05/08 07:55:26;;;;;;;;;;;13.30;99.90;;;;;;5057503;28;19925;-92
2023/05/08 07:57:52;;;;;;;;;;;13.30;99.90;;;;;;5073150;28;20004;-94
2023/05/08 08:00:17;;;;;;;;;;;13.40;99.90;;;;;;5068856;28;20277;-92
2023/05/08 08:02:43;;;;;;;;;;;13.40;99.90;;;;;;5064421;28;19925;-92
2023/05/08 08:05:09;;;;;;;;;;;13.40;99.90;;;;;;5065113;28;19964;-92
2023/05/08 08:07:35;;;;;;;;;;;13.40;99.90;;;;;;5047459;28;19925;-91
2023/05/08 08:10:03;;;;;;;;;;;13.40;99.90;;;;;;5075536;28;19932;-91
2023/05/08 08:12:29;;;;;;;;;;;13.50;99.90;;;;;;5066403;28;19987;-92
2023/05/08 08:14:55;;;;;;;;;;;13.60;99.90;;;;;;5081777;28;19955;-91
2023/05/08 08:17:21;;;;;;;;;;;13.70;99.90;;;;;;5051607;28;19924;-92
2023/05/08 08:19:47;;;;;;;;;;;13.80;99.90;;;;;;5050712;28;19931;-92
2023/05/08 08:22:13;;;;;;;;;;;13.90;99.90;;;;;;5051265;28;19970;-91
2023/05/08 08:24:39;;;;;;;;;;;13.90;99.90;;;;;;5065218;28;19972;-92
2023/05/08 08:27:04;;;;;;;;;;;14.10;99.90;;;;;;5051325;28;19925;-93
2023/05/08 08:29:30;;;;;;;;;;;14.20;99.90;;;;;;5056475;28;19935;-91
2023/05/08 08:31:55;;;;;;;;;;;14.40;99.90;;;;;;5059375;28;19932;-92
2023/05/08 08:34:21;;;;;;;;;;;14.50;99.90;;;;;;5076316;28;19983;-91
2023/05/08 08:36:47;;;;;;;;;;;14.70;99.90;;;;;;5068615;28;20031;-92
2023/05/08 08:39:12;;;;;;;;;;;14.70;99.90;;;;;;5069959;28;19959;-91
2023/05/08 08:41:38;;;;;;;;;;;14.90;99.90;;;;;;5049275;28;19965;-93
2023/05/08 08:44:04;;;;;;;;;;;14.90;99.90;;;;;;5065533;28;19936;-91
2023/05/08 08:46:32;;;;;;;;;;;14.90;99.90;;;;;;5065074;28;20019;-92
2023/05/08 08:48:58;;;;;;;;;;;15.00;99.90;;;;;;5065914;28;19928;-91
2023/05/08 08:51:23;;;;;;;;;;;15.00;99.90;;;;;;5066600;28;19932;-91
2023/05/08 08:53:53;;;;;;;;;;;15.10;99.90;;;;;;5081980;28;19921;-92
2023/05/08 08:56:21;;;;;;;;;;;15.10;99.90;;;;;;5066450;28;19970;-92
2023/05/08 08:58:50;;;;;;;;;;;15.20;99.90;;;;;;5064721;28;19931;-92
2023/05/08 09:01:17;;;;;;;;;;;15.20;99.90;;;;;;5066329;28;19925;-91
2023/05/08 09:03:42;;;;;;;;;;;15.30;99.90;;;;;;5049028;28;19947;-92
2023/05/08 09:06:08;;;;;;;;;;;15.40;99.90;;;;;;5078206;28;19992;-92
2023/05/08 09:08:34;;;;;;;;;;;15.50;99.90;;;;;;5082444;28;20357;-93
2023/05/08 09:11:00;;;;;;;;;;;15.60;99.90;;;;;;5081360;28;19967;-93
2023/05/08 09:13:27;;;;;;;;;;;15.70;99.90;;;;;;5082812;28;20315;-93
2023/05/08 09:15:53;;;;;;;;;;;15.80;99.90;;;;;;5078169;28;19951;-92
2023/05/08 09:18:18;;;;;;;;;;;15.90;99.90;;;;;;5066744;28;19925;-93
2023/05/08 09:20:44;;;;;;;;;;;16.00;99.90;;;;;;5063723;28;19954;-91
2023/05/08 09:23:10;;;;;;;;;;;16.10;99.90;;;;;;5065597;28;19983;-92
2023/05/08 09:25:42;;;;;;;;;;;16.20;99.90;;;;;;5082450;28;19931;-92
2023/05/08 09:28:18;;;;;;;;;;;16.20;99.90;;;;;;5064409;28;19935;-93
2023/05/08 09:30:56;;;;;;;;;;;16.30;99.90;;;;;;5065543;28;19943;-93
2023/05/08 09:33:26;;;;;;;;;;;16.20;99.90;;;;;;5064554;28;20241;-91
2023/05/08 09:35:52;;;;;;;;;;;16.20;99.90;;;;;;5048837;28;19925;-91
2023/05/08 09:38:30;;;;;;;;;;;16.30;99.90;;;;;;5038603;28;19929;-91
2023/05/08 09:41:09;;;;;;;;;;;16.40;99.90;;;;;;5081428;28;19963;-93
2023/05/08 09:43:35;;;;;;;;;;;16.50;99.90;;;;;;5049471;28;19925;-93
2023/05/08 09:46:27;;;;;;;;;;;16.60;99.90;;;;;;5047506;28;19964;-91
2023/05/08 09:48:53;;;;;;;;;;;16.60;99.90;;;;;;5064257;28;20399;-92
2023/05/08 09:51:19;;;;;;;;;;;16.60;99.90;;;;;;5061767;28;19939;-93
2023/05/08 09:53:45;;;;;;;;;;;16.70;99.90;;;;;;5076821;28;19916;-94
2023/05/08 09:56:11;;;;;;;;;;;16.70;99.90;;;;;;5061231;28;19924;-92
2023/05/08 09:58:40;;;;;;;;;;;16.80;99.90;;;;;;5069072;28;20004;-92
2023/05/08 10:01:06;;;;;;;;;;;16.80;99.90;;;;;;5063551;28;20016;-93
2023/05/08 10:03:48;;;;;;;;;;;16.90;99.90;;;;;;5068959;28;20002;-92
2023/05/08 10:06:13;;;;;;;;;;;17.00;99.90;;;;;;5065984;28;20011;-92
2023/05/08 10:08:39;;;;;;;;;;;17.20;99.90;;;;;;5065202;28;19936;-91
2023/05/08 10:11:15;;;;;;;;;;;17.40;99.90;;;;;;5064023;28;19924;-91
2023/05/08 10:13:41;;;;;;;;;;;17.60;99.90;;;;;;5046601;28;19924;-93
2023/05/08 10:16:10;;;;;;;;;;;17.70;99.90;;;;;;5061178;28;19925;-92
2023/05/08 10:18:36;;;;;;;;;;;17.80;99.90;;;;;;5098499;28;20022;-92
2023/05/08 10:21:04;;;;;;;;;;;17.90;99.90;;;;;;5054272;28;19986;-93
2023/05/08 10:23:31;;;;;;;;;;;18.00;99.90;;;;;;5060380;28;19982;-92
2023/05/08 10:26:00;;;;;;;;;;;18.10;99.90;;;;;;5063767;28;19940;-92
2023/05/08 10:28:45;;;;;;;;;;;18.20;99.90;;;;;;5062160;28;19924;-95
2023/05/08 10:31:13;;;;;;;;;;;18.20;99.90;;;;;;5064629;28;20287;-91
2023/05/08 10:33:40;;;;;;;;;;;18.20;99.90;;;;;;5062748;28;19959;-92
2023/05/08 10:36:06;;;;;;;;;;;18.20;99.90;;;;;;5063750;28;19968;-92
2023/05/08 10:38:32;;;;;;;;;;;18.30;99.90;;;;;;5060207;28;19935;-91
2023/05/08 10:41:01;;;;;;;;;;;18.50;99.90;;;;;;5062158;28;19992;-91
2023/05/08 10:43:27;;;;;;;;;;;18.60;99.90;;;;;;5063580;28;19924;-93
2023/05/08 10:45:54;;;;;;;;;;;18.70;99.90;;;;;;5061745;28;19964;-92
2023/05/08 10:48:25;;;;;;;;;;;18.60;99.90;;;;;;5063958;28;19935;-91
2023/05/08 10:51:01;;;;;;;;;;;18.70;99.90;;;;;;5061707;28;19925;-91
2023/05/08 10:53:37;;;;;;;;;;;18.90;99.90;;;;;;5063390;28;19939;-93
2023/05/08 10:56:03;;;;;;;;;;;19.00;99.90;;;;;;5054567;28;19924;-91
2023/05/08 10:58:30;;;;;;;;;;;19.10;99.90;;;;;;5044901;28;19969;-91
2023/05/08 11:00:55;;;;;;;;;;;19.30;99.90;;;;;;5063321;28;19931;-92
2023/05/08 11:03:25;;;;;;;;;;;19.40;99.90;;;;;;5078826;28;19932;-92
2023/05/08 11:05:52;;;;;;;;;;;19.40;99.90;;;;;;5063331;28;19974;-92
2023/05/08 11:08:18;;;;;;;;;;;19.50;99.90;;;;;;5080659;28;19954;-91
2023/05/08 11:10:52;;;;;;;;;;;19.70;99.90;;;;;;5068262;28;19925;-91
2023/05/08 11:13:19;;;;;;;;;;;19.80;99.90;;;;;;5055195;28;19928;-92
2023/05/08 11:15:49;;;;;;;;;;;19.90;99.90;;;;;;5075012;28;20295;-91
2023/05/08 11:18:15;;;;;;;;;;;19.90;99.90;;;;;;5081497;28;19925;-91
2023/05/08 11:20:53;;;;;;;;;;;20.00;99.90;;;;;;5057687;28;19929;-90
2023/05/08 11:23:21;;;;;;;;;;;20.10;99.90;;;;;;5084170;28;19925;-92
2023/05/08 11:25:47;;;;;;;;;;;20.20;99.90;;;;;;5076697;28;19928;-91
2023/05/08 11:28:15;;;;;;;;;;;20.30;99.90;;;;;;5049832;28;19970;-91
2023/05/08 11:30:43;;;;;;;;;;;20.40;99.90;;;;;;5068046;28;19928;-92
2023/05/08 11:33:08;;;;;;;;;;;20.50;99.90;;;;;;5070036;28;19935;-91
2023/05/08 11:35:58;;;;;;;;;;;20.60;99.90;;;;;;5066701;28;19961;-92
2023/05/08 11:38:24;;;;;;;;;;;20.70;99.90;;;;;;5077992;28;19947;-92
2023/05/08 11:40:53;;;;;;;;;;;20.70;99.90;;;;;;5066373;28;20020;-91
2023/05/08 11:43:31;;;;;;;;;;;20.80;99.90;;;;;;5063861;28;19925;-91
2023/05/08 11:46:02;;;;;;;;;;;20.90;99.90;;;;;;5070761;28;19932;-92
2023/05/08 11:48:29;;;;;;;;;;;21.00;99.90;;;;;;5067677;28;19970;-92
2023/05/08 11:50:54;;;;;;;;;;;21.10;99.90;;;;;;5048102;28;19932;-92
2023/05/08 11:53:20;;;;;;;;;;;21.20;99.90;;;;;;5050659;28;19928;-92
2023/05/08 11:55:51;;;;;;;;;;;21.20;99.90;;;;;;5053080;28;20054;-91
2023/05/08 11:58:17;;;;;;;;;;;21.30;99.90;;;;;;5052974;28;19928;-92
2023/05/08 12:00:44;;;;;;;;;;;21.30;99.90;;;;;;5060511;28;19939;-91
2023/05/08 12:03:17;;;;;;;;;;;21.40;99.90;;;;;;5062912;28;19924;-91
2023/05/08 12:05:43;;;;;;;;;;;21.60;99.90;;;;;;5066653;28;19925;-90
2023/05/08 12:08:10;;;;;;;;;;;21.70;99.90;;;;;;5065573;28;19946;-91
2023/05/08 12:10:59;;;;;;;;;;;21.80;99.90;;;;;;5061125;28;19925;-94
2023/05/08 12:13:25;;;;;;;;;;;21.90;99.90;;;;;;5059383;28;19930;-91
2023/05/08 12:15:52;;;;;;;;;;;21.90;99.90;;;;;;5080921;28;20000;-92
2023/05/08 12:18:18;;;;;;;;;;;21.90;99.90;;;;;;5093909;28;19928;-91
2023/05/08 12:20:44;;;;;;;;;;;21.80;99.90;;;;;;5058804;28;19925;-91
2023/05/08 12:23:10;;;;;;;;;;;21.80;99.90;;;;;;5064872;28;19925;-91
2023/05/08 12:25:39;;;;;;;;;;;21.90;99.90;;;;;;5063762;28;20021;-90
2023/05/08 12:28:08;;;;;;;;;;;22.00;99.90;;;;;;5048963;28;19950;-91
2023/05/08 12:30:34;;;;;;;;;;;21.90;99.90;;;;;;5044816;28;19925;-91
2023/05/08 12:33:00;;;;;;;;;;;21.80;99.90;;;;;;5060576;28;19959;-90
2023/05/08 12:35:26;;;;;;;;;;;21.70;99.90;;;;;;5076100;28;19921;-91
2023/05/08 12:37:52;;;;;;;;;;;21.60;99.90;;;;;;5073748;28;19924;-92
2023/05/08 12:40:25;;;;;;;;;;;21.60;99.90;;;;;;5048309;28;20011;-91
2023/05/08 12:42:50;;;;;;;;;;;21.60;99.90;;;;;;5064354;28;19924;-91
2023/05/08 12:45:17;;;;;;;;;;;21.60;99.90;;;;;;5049082;28;19935;-92
2023/05/08 12:47:49;;;;;;;;;;;21.60;99.90;;;;;;5049378;28;20000;-91
2023/05/08 12:50:16;;;;;;;;;;;21.60;99.90;;;;;;5047137;28;19946;-91
2023/05/08 12:52:42;;;;;;;;;;;21.50;99.90;;;;;;5049550;28;19928;-92
2023/05/08 12:55:26;;;;;;;;;;;21.40;99.90;;;;;;5041058;28;19974;-91
2023/05/08 12:57:58;;;;;;;;;;;21.50;99.90;;;;;;5064636;28;19924;-91
2023/05/08 13:00:24;;;;;;;;;;;21.60;99.90;;;;;;5065124;28;19924;-91
2023/05/08 13:02:51;;;;;;;;;;;21.60;99.90;;;;;;5049616;28;19964;-92
2023/05/08 13:05:21;;;;;;;;;;;21.50;99.90;;;;;;5098566;28;19924;-92
2023/05/08 13:07:47;;;;;;;;;;;21.40;99.90;;;;;;5062053;28;20449;-92
2023/05/08 13:10:12;;;;;;;;;;;21.40;99.90;;;;;;5065608;28;19924;-91
2023/05/08 13:12:38;;;;;;;;;;;21.40;99.90;;;;;;5047000;28;20295;-91
2023/05/08 13:15:04;;;;;;;;;;;21.40;99.90;;;;;;5058326;28;19924;-90
2023/05/08 13:17:30;;;;;;;;;;;21.40;99.90;;;;;;5048589;28;19924;-91
2023/05/08 13:19:56;;;;;;;;;;;21.50;99.90;;;;;;5058930;28;20434;-91
2023/05/08 13:22:25;;;;;;;;;;;20.60;99.90;;;;;;5046780;28;19947;-91
2023/05/08 13:24:51;;;;;;;;;;;21.70;99.90;;;;;;5036044;28;19980;-91
2023/05/08 13:27:20;;;;;;;;;;;22.80;99.90;;;;;;5082498;28;19962;-93
2023/05/08 13:29:45;;;;;;;;;;;21.90;99.90;;;;;;5046877;28;19924;-90
2023/05/08 13:32:11;;;;;;;;;;;22.00;99.90;;;;;;5030396;28;19979;-92
2023/05/08 13:34:36;;;;;;;;;;;22.10;99.90;;;;;;5031249;28;19925;-91
2023/05/08 13:37:02;;;;;;;;;;;22.20;99.90;;;;;;5055260;28;19931;-92
2023/05/08 13:39:30;;;;;;;;;;;22.50;99.90;;;;;;5072880;28;19960;-93
2023/05/08 13:41:56;;;;;;;;;;;22.70;99.90;;;;;;5067109;28;20368;-93
2023/05/08 13:44:22;;;;;;;;;;;22.80;99.90;;;;;;5039414;28;19924;-93
2023/05/08 13:46:47;;;;;;;;;;;22.90;99.90;;;;;;5035878;28;20051;-91
2023/05/08 13:49:13;;;;;;;;;;;22.90;99.90;;;;;;5049416;28;19924;-95
2023/05/08 13:51:39;;;;;;;;;;;22.90;99.90;;;;;;5054414;28;19931;-92
2023/05/08 13:54:05;;;;;;;;;;;22.90;99.90;;;;;;5043913;28;19925;-91
2023/05/08 13:56:31;;;;;;;;;;;23.00;99.90;;;;;;5091351;28;19924;-91
2023/05/08 13:58:57;;;;;;;;;;;22.70;99.90;;;;;;5042385;28;20456;-92
2023/05/08 14:01:22;;;;;;;;;;;22.60;99.90;;;;;;5053160;28;19924;-93
2023/05/08 14:03:48;;;;;;;;;;;22.70;99.90;;;;;;5039794;28;19971;-92
2023/05/08 14:06:13;;;;;;;;;;;22.80;99.90;;;;;;5046019;28;19928;-91
2023/05/08 14:08:39;;;;;;;;;;;22.90;99.90;;;;;;5034771;28;19931;-92
2023/05/08 14:11:05;;;;;;;;;;;23.00;99.90;;;;;;5035554;28;19932;-92
2023/05/08 14:13:30;;;;;;;;;;;23.10;99.90;;;;;;5031727;28;20355;-93
2023/05/08 14:15:56;;;;;;;;;;;23.30;99.90;;;;;;5028661;28;19924;-93
2023/05/08 14:18:21;;;;;;;;;;;23.50;99.90;;;;;;5047377;28;19928;-94
2023/05/08 14:20:47;;;;;;;;;;;23.50;99.90;;;;;;5037530;28;20292;-91
2023/05/08 14:23:13;;;;;;;;;;;23.50;99.90;;;;;;5033388;28;20295;-91
2023/05/08 14:25:39;;;;;;;;;;;23.50;99.90;;;;;;5045826;28;19928;-91
2023/05/08 14:28:04;;;;;;;;;;;23.50;99.90;;;;;;5046524;28;19946;-91
2023/05/08 14:30:30;;;;;;;;;;;23.30;99.90;;;;;;5049008;28;19932;-91
2023/05/08 14:32:56;;;;;;;;;;;23.30;99.90;;;;;;5038767;28;20249;-92
2023/05/08 14:35:21;;;;;;;;;;;23.30;99.90;;;;;;5047018;28;20317;-91
2023/05/08 14:37:47;;;;;;;;;;;23.20;99.90;;;;;;5062164;28;19940;-92
2023/05/08 14:40:12;;;;;;;;;;;23.00;99.90;;;;;;5031188;28;20791;-91
2023/05/08 14:42:38;;;;;;;;;;;22.80;99.90;;;;;;5035147;28;19924;-91
2023/05/08 14:45:04;;;;;;;;;;;22.80;99.90;;;;;;5045457;28;19931;-91
2023/05/08 14:47:31;;;;;;;;;;;22.80;99.90;;;;;;5034295;28;19931;-91
2023/05/08 14:49:57;;;;;;;;;;;22.90;99.90;;;;;;5074322;28;19924;-91
2023/05/08 14:52:23;;;;;;;;;;;22.90;99.90;;;;;;5051412;28;19947;-92
2023/05/08 14:54:51;;;;;;;;;;;22.90;99.90;;;;;;5037752;28;19996;-91
2023/05/08 14:57:17;;;;;;;;;;;22.90;99.90;;;;;;5047786;28;19925;-90
2023/05/08 14:59:43;;;;;;;;;;;22.80;99.90;;;;;;5049578;28;19935;-91
2023/05/08 15:02:09;;;;;;;;;;;22.70;99.90;;;;;;5037826;28;19988;-91
2023/05/08 15:04:39;;;;;;;;;;;22.60;99.90;;;;;;5045736;28;19925;-93
2023/05/08 15:07:05;;;;;;;;;;;22.50;99.90;;;;;;5082678;28;19925;-90
2023/05/08 15:09:31;;;;;;;;;;;23.30;99.90;;;;;;5063579;28;19951;-92
2023/05/08 15:11:57;;;;;;;;;;;22.30;99.90;;;;;;5049374;28;19935;-91
2023/05/08 15:14:23;;;;;;;;;;;22.20;99.90;;;;;;5074681;28;19931;-92
2023/05/08 15:16:49;;;;;;;;;;;22.10;99.90;;;;;;5053891;28;19935;-92
2023/05/08 15:19:15;;;;;;;;;;;22.10;99.90;;;;;;5043371;28;19932;-91
2023/05/08 15:21:41;;;;;;;;;;;22.00;99.90;;;;;;5037196;28;20030;-92
2023/05/08 15:24:07;;;;;;;;;;;22.00;99.90;;;;;;5082044;28;19928;-92
2023/05/08 15:26:33;;;;;;;;;;;21.90;99.90;;;;;;5050063;28;19936;-91
2023/05/08 15:28:58;;;;;;;;;;;21.90;99.90;;;;;;5045581;28;19968;-92
2023/05/08 15:31:24;;;;;;;;;;;21.90;99.90;;;;;;5084022;28;19925;-91
2023/05/08 15:33:50;;;;;;;;;;;21.90;99.90;;;;;;5065267;28;19924;-92
2023/05/08 15:36:15;;;;;;;;;;;21.90;99.90;;;;;;5067236;28;19939;-90
2023/05/08 15:38:41;;;;;;;;;;;21.90;99.90;;;;;;5052678;28;19952;-91
2023/05/08 15:41:08;;;;;;;;;;;21.90;99.90;;;;;;5080118;28;19970;-90
2023/05/08 15:43:35;;;;;;;;;;;21.90;99.90;;;;;;5050372;28;19925;-91
2023/05/08 15:46:01;;;;;;;;;;;21.90;99.90;;;;;;5065089;28;19950;-90
2023/05/08 15:48:27;;;;;;;;;;;21.80;99.90;;;;;;5050933;28;19972;-91
2023/05/08 15:50:52;;;;;;;;;;;21.70;99.90;;;;;;5051270;28;19946;-91
2023/05/08 15:53:18;;;;;;;;;;;21.50;99.90;;;;;;5070829;28;19924;-92
2023/05/08 15:55:44;;;;;;;;;;;21.30;99.90;;;;;;5048035;28;19925;-91
2023/05/08 15:58:09;;;;;;;;;;;21.00;99.90;;;;;;5065614;28;19925;-92
2023/05/08 16:00:35;;;;;;;;;;;20.70;99.90;;;;;;5050090;28;19924;-93
2023/05/08 16:03:01;;;;;;;;;;;20.40;99.90;;;;;;5051364;28;19977;-91